createdAt,value
2023-06-04T00:01:54.593Z,99552.92
2023-06-04T00:04:24.535Z,99553.20
2023-06-04T00:06:52.590Z,99549.44
2023-06-04T00:09:20.589Z,99548.85
2023-06-04T00:11:48.952Z,99553.34
2023-06-04T00:14:17.369Z,99552.58
2023-06-04T00:16:45.422Z,99552.52
2023-06-04T00:19:13.572Z,99547.06
2023-06-04T00:21:41.613Z,99547.71
2023-06-04T00:24:10.490Z,99550.10
2023-06-04T00:26:39.247Z,99549.44
2023-06-04T00:29:07.166Z,99543.12
2023-06-04T00:31:35.285Z,99539.84
2023-06-04T00:34:05.313Z,99540.99
2023-06-04T00:36:33.345Z,99540.22
2023-06-04T00:39:01.402Z,99538.49
2023-06-04T00:41:29.556Z,99535.15
2023-06-04T00:43:57.736Z,99537.18
2023-06-04T00:46:27.936Z,99535.02
2023-06-04T00:48:56.393Z,99538.41
2023-06-04T00:51:24.765Z,99533.60
2023-06-04T00:53:53.826Z,99529.63
2023-06-04T00:56:21.930Z,99529.19
2023-06-04T00:58:50.306Z,99528.58
2023-06-04T01:01:23.556Z,99526.80
2023-06-04T01:03:55.223Z,99526.59
2023-06-04T01:06:36.966Z,99521.94
2023-06-04T01:09:06.291Z,99518.90
2023-06-04T01:11:38.156Z,99519.68
2023-06-04T01:14:11.718Z,99519.91
2023-06-04T01:17:02.984Z,99514.63
2023-06-04T01:20:05.446Z,99513.79
2023-06-04T01:22:40.140Z,99512.46
2023-06-04T01:25:20.768Z,99515.38
2023-06-04T01:27:56.960Z,99513.02
2023-06-04T01:30:36.074Z,99516.43
2023-06-04T01:33:04.843Z,99518.46
2023-06-04T01:35:33.126Z,99520.66
2023-06-04T01:38:01.537Z,99518.98
2023-06-04T01:40:29.935Z,99516.77
2023-06-04T01:42:59.308Z,99515.80
2023-06-04T01:45:28.731Z,99512.70
2023-06-04T01:47:57.875Z,99514.31
2023-06-04T01:50:25.913Z,99514.02
2023-06-04T01:52:55.483Z,99513.58
2023-06-04T01:55:26.221Z,99510.67
2023-06-04T01:57:54.598Z,99510.40
2023-06-04T02:00:22.809Z,99506.72
2023-06-04T02:02:51.207Z,99505.23
2023-06-04T02:05:19.774Z,99509.61
2023-06-04T02:07:49.016Z,99513.86
2023-06-04T02:10:19.095Z,99512.51
2023-06-04T02:13:00.764Z,99513.76
2023-06-04T02:15:29.100Z,99517.50
2023-06-04T02:18:00.440Z,99517.59
2023-06-04T02:20:29.267Z,99521.51
2023-06-04T02:22:57.276Z,99520.56
2023-06-04T02:25:28.034Z,99520.65
2023-06-04T02:27:56.008Z,99521.77
2023-06-04T02:30:24.039Z,99523.58
2023-06-04T02:32:52.997Z,99526.48
2023-06-04T02:35:25.772Z,99528.77
2023-06-04T02:37:53.890Z,99528.50
2023-06-04T02:40:21.780Z,99526.10
2023-06-04T02:42:49.727Z,99523.15
2023-06-04T02:45:17.685Z,99524.70
2023-06-04T02:47:45.875Z,99528.89
2023-06-04T02:50:16.426Z,99528.59
2023-06-04T02:52:44.744Z,99531.05
2023-06-04T02:55:13.939Z,99525.65
2023-06-04T02:57:43.713Z,99524.81
2023-06-04T03:00:14.013Z,99525.40
2023-06-04T03:02:47.554Z,99526.33
2023-06-04T03:05:19.039Z,99525.04
2023-06-04T03:07:48.317Z,99524.11
2023-06-04T03:10:17.162Z,99531.21
2023-06-04T03:12:45.666Z,99534.68
2023-06-04T03:15:13.684Z,99536.92
2023-06-04T03:17:43.041Z,99540.55
2023-06-04T03:20:12.110Z,99541.09
2023-06-04T03:22:40.220Z,99540.52
2023-06-04T03:25:08.555Z,99540.97
2023-06-04T03:27:36.968Z,99545.48
2023-06-04T03:30:07.072Z,99548.85
2023-06-04T03:32:46.597Z,99552.42
2023-06-04T03:35:15.660Z,99552.14
2023-06-04T03:37:43.593Z,99549.54
2023-06-04T03:40:12.343Z,99554.03
2023-06-04T03:42:43.393Z,99552.17
2023-06-04T03:45:12.349Z,99549.58
2023-06-04T03:47:40.936Z,99549.33
2023-06-04T03:50:10.223Z,99551.08
2023-06-04T03:52:38.888Z,99547.17
2023-06-04T03:55:08.223Z,99543.95
2023-06-04T03:57:39.508Z,99544.77
2023-06-04T04:00:13.205Z,99545.74
2023-06-04T04:02:46.544Z,99548.36
2023-06-04T04:05:21.046Z,99547.99
2023-06-04T04:07:49.597Z,99542.79
2023-06-04T04:10:20.144Z,99542.04
2023-06-04T04:12:48.444Z,99539.73
2023-06-04T04:15:16.620Z,99538.44
2023-06-04T04:17:44.882Z,99536.92
2023-06-04T04:20:13.066Z,99535.04
2023-06-04T04:22:46.493Z,99532.45
2023-06-04T04:25:14.860Z,99534.76
2023-06-04T04:27:43.390Z,99536.66
2023-06-04T04:30:14.747Z,99534.77
2023-06-04T04:32:49.693Z,99534.52
2023-06-04T04:35:20.245Z,99532.79
2023-06-04T04:37:48.949Z,99528.45
2023-06-04T04:40:18.079Z,99526.40
2023-06-04T04:42:48.200Z,99526.09
2023-06-04T04:45:16.847Z,99519.04
2023-06-04T04:47:45.064Z,99522.89
2023-06-04T04:50:13.527Z,99522.39
2023-06-04T04:52:41.604Z,99521.17
2023-06-04T04:55:10.235Z,99522.30
2023-06-04T04:57:39.382Z,99519.63
2023-06-04T05:00:09.925Z,99523.04
2023-06-04T05:02:39.569Z,99527.02
2023-06-04T05:05:08.711Z,99528.10
2023-06-04T05:07:36.737Z,99530.52
2023-06-04T05:10:05.140Z,99531.30
2023-06-04T05:12:33.399Z,99532.03
2023-06-04T05:15:02.312Z,99525.50
2023-06-04T05:17:32.974Z,99523.30
2023-06-04T05:20:05.946Z,99521.29
2023-06-04T05:22:34.739Z,99520.83
2023-06-04T05:25:03.146Z,99520.58
2023-06-04T05:27:32.576Z,99523.67
2023-06-04T05:30:02.216Z,99524.23
2023-06-04T05:32:31.545Z,99526.17
2023-06-04T05:35:00.729Z,99524.22
2023-06-04T05:37:31.310Z,99525.51
2023-06-04T05:39:59.597Z,99529.73
2023-06-04T05:42:27.656Z,99526.79
2023-06-04T05:44:56.024Z,99526.48
2023-06-04T05:47:24.414Z,99530.36
2023-06-04T05:49:52.440Z,99531.37
2023-06-04T05:52:20.826Z,99530.66
2023-06-04T05:54:49.858Z,99531.52
2023-06-04T05:57:18.085Z,99532.92
2023-06-04T05:59:46.889Z,99536.46
2023-06-04T06:02:17.316Z,99540.13
2023-06-04T06:04:45.764Z,99540.49
2023-06-04T06:07:13.790Z,99539.79
2023-06-04T06:09:41.864Z,99536.54
2023-06-04T06:12:09.895Z,99542.63
2023-06-04T06:14:39.583Z,99543.52
2023-06-04T06:17:07.717Z,99546.40
2023-06-04T06:19:38.332Z,99549.19
2023-06-04T06:22:06.395Z,99549.35
2023-06-04T06:24:35.172Z,99554.26
2023-06-04T06:27:03.307Z,99556.10
2023-06-04T06:29:31.683Z,99558.00
2023-06-04T06:32:00.480Z,99557.94
2023-06-04T06:34:28.479Z,99558.69
2023-06-04T06:36:56.488Z,99556.73
2023-06-04T06:39:24.671Z,99552.80
2023-06-04T06:41:53.319Z,99552.89
2023-06-04T06:44:24.664Z,99555.00
2023-06-04T06:46:52.637Z,99558.59
2023-06-04T06:49:20.654Z,99561.14
2023-06-04T06:51:48.580Z,99558.63
2023-06-04T06:54:22.676Z,99563.34
2023-06-04T06:56:51.742Z,99564.84
2023-06-04T06:59:19.749Z,99563.08
2023-06-04T07:01:48.384Z,99566.43
2023-06-04T07:04:17.162Z,99566.67
2023-06-04T07:06:45.150Z,99571.48
2023-06-04T07:09:14.278Z,99574.14
2023-06-04T07:11:42.338Z,99575.53
2023-06-04T07:14:10.290Z,99576.82
2023-06-04T07:16:38.195Z,99577.77
2023-06-04T07:19:06.054Z,99578.84
2023-06-04T07:21:34.016Z,99577.89
2023-06-04T07:24:02.084Z,99578.23
2023-06-04T07:26:33.373Z,99576.85
2023-06-04T07:29:03.026Z,99578.96
2023-06-04T07:31:31.088Z,99578.86
2023-06-04T07:33:59.024Z,99579.23
2023-06-04T07:36:26.981Z,99585.15
2023-06-04T07:38:54.899Z,99586.27
2023-06-04T07:41:22.881Z,99582.14
2023-06-04T07:43:50.798Z,99585.48
2023-06-04T07:46:20.112Z,99588.06
2023-06-04T07:48:48.346Z,99585.91
2023-06-04T07:51:16.365Z,99582.45
2023-06-04T07:53:46.037Z,99582.55
2023-06-04T07:56:14.133Z,99583.23
2023-06-04T07:58:42.238Z,99580.39
2023-06-04T08:01:10.531Z,99578.63
2023-06-04T08:03:38.573Z,99578.80
2023-06-04T08:06:07.221Z,99577.48
2023-06-04T08:08:35.136Z,99575.29
2023-06-04T08:11:03.794Z,99582.19
2023-06-04T08:13:31.775Z,99579.92
2023-06-04T08:15:59.885Z,99583.29
2023-06-04T08:18:27.806Z,99586.41
2023-06-04T08:20:56.165Z,99588.16
2023-06-04T08:23:24.149Z,99588.98
2023-06-04T08:25:52.190Z,99587.97
2023-06-04T08:28:20.988Z,99583.70
2023-06-04T08:30:49.016Z,99586.73
2023-06-04T08:33:17.043Z,99586.80
2023-06-04T08:35:45.066Z,99586.34
2023-06-04T08:38:13.080Z,99587.85
2023-06-04T08:40:41.861Z,99590.19
2023-06-04T08:43:11.378Z,99588.28
2023-06-04T08:45:41.166Z,99590.73
2023-06-04T08:48:14.192Z,99592.47
2023-06-04T08:50:46.398Z,99597.57
2023-06-04T08:53:16.640Z,99596.42
2023-06-04T08:55:44.790Z,99595.91
2023-06-04T08:58:13.990Z,99598.96
2023-06-04T09:00:42.080Z,99595.80
2023-06-04T09:03:12.366Z,99598.13
2023-06-04T09:05:41.098Z,99602.98
2023-06-04T09:08:11.894Z,99604.55
2023-06-04T09:10:41.765Z,99602.48
2023-06-04T09:13:11.322Z,99602.51
2023-06-04T09:15:39.344Z,99603.80
2023-06-04T09:18:07.414Z,99604.88
2023-06-04T09:20:35.600Z,99605.66
2023-06-04T09:23:13.802Z,99606.20
2023-06-04T09:25:47.048Z,99602.89
2023-06-04T09:28:14.995Z,99608.58
2023-06-04T09:30:52.358Z,99605.36
2023-06-04T09:33:21.941Z,99604.30
2023-06-04T09:35:57.394Z,99605.29
2023-06-04T09:38:34.972Z,99606.89
2023-06-04T09:41:06.241Z,99607.14
2023-06-04T09:43:34.505Z,99603.17
2023-06-04T09:46:13.756Z,99606.12
2023-06-04T09:48:42.620Z,99606.63
2023-06-04T09:51:14.617Z,99603.63
2023-06-04T09:53:42.932Z,99598.88
2023-06-04T09:56:12.216Z,99600.33
2023-06-04T09:58:44.073Z,99597.55
2023-06-04T10:01:12.883Z,99599.56
2023-06-04T10:03:43.525Z,99598.20
2023-06-04T10:06:15.199Z,99601.30
2023-06-04T10:08:43.962Z,99602.36
2023-06-04T10:11:14.491Z,99600.43
2023-06-04T10:13:57.936Z,99602.45
2023-06-04T10:16:34.216Z,99596.47
2023-06-04T10:19:03.255Z,99591.98
2023-06-04T10:21:36.415Z,99588.89
2023-06-04T10:24:05.082Z,99585.98
2023-06-04T10:26:35.509Z,99577.29
2023-06-04T10:29:03.868Z,99576.79
2023-06-04T10:31:33.298Z,99587.38
2023-06-04T10:34:01.697Z,99584.06
2023-06-04T10:36:30.029Z,99582.02
2023-06-04T10:38:58.000Z,99579.46
2023-06-04T10:41:26.317Z,99579.85
2023-06-04T10:44:02.327Z,99587.80
2023-06-04T10:46:42.073Z,99580.06
2023-06-04T10:49:15.861Z,99574.67
2023-06-04T10:51:45.119Z,99579.84
2023-06-04T10:54:24.876Z,99578.65
2023-06-04T10:56:54.572Z,99576.40
2023-06-04T10:59:25.263Z,99578.27
2023-06-04T11:02:09.076Z,99572.94
2023-06-04T11:04:40.208Z,99572.30
2023-06-04T11:07:11.940Z,99566.23
2023-06-04T11:09:52.144Z,99567.98
2023-06-04T11:12:20.062Z,99568.28
2023-06-04T11:14:58.866Z,99565.36
2023-06-04T11:17:27.037Z,99563.73
2023-06-04T11:19:56.640Z,99565.27
2023-06-04T11:22:25.450Z,99564.01
2023-06-04T11:25:00.412Z,99562.66
2023-06-04T11:30:03.893Z,99566.29
2023-06-04T11:32:31.956Z,99561.99
2023-06-04T11:35:06.408Z,99564.14
2023-06-04T11:37:35.443Z,99560.63
2023-06-04T11:40:06.624Z,99556.52
2023-06-04T11:42:44.134Z,99556.34
2023-06-04T11:45:18.548Z,99556.33
2023-06-04T11:47:49.194Z,99561.35
2023-06-04T11:50:17.470Z,99562.58
2023-06-04T11:52:45.664Z,99561.05
2023-06-04T11:55:14.276Z,99560.95
2023-06-04T11:57:42.489Z,99560.32
2023-06-04T12:00:11.492Z,99560.48
2023-06-04T12:02:51.180Z,99557.88
2023-06-04T12:05:20.510Z,99554.98
2023-06-04T12:07:51.912Z,99554.55
2023-06-04T12:10:21.542Z,99554.57
2023-06-04T12:12:56.747Z,99552.55
2023-06-04T12:15:24.872Z,99553.60
2023-06-04T12:17:56.070Z,99557.49
2023-06-04T12:20:38.030Z,99558.56
2023-06-04T12:23:07.187Z,99556.77
2023-06-04T12:25:38.680Z,99551.59
2023-06-04T12:28:07.331Z,99551.20
2023-06-04T12:30:39.011Z,99547.45
2023-06-04T12:33:07.659Z,99546.84
2023-06-04T12:35:36.642Z,99548.13
2023-06-04T12:38:06.386Z,99549.20
2023-06-04T12:40:34.464Z,99553.10
2023-06-04T12:43:02.522Z,99547.60
2023-06-04T12:45:30.677Z,99546.45
2023-06-04T12:47:58.682Z,99543.88
2023-06-04T12:50:26.676Z,99544.48
2023-06-04T12:52:54.712Z,99544.60
2023-06-04T12:55:22.680Z,99543.99
2023-06-04T12:57:50.732Z,99539.58
2023-06-04T13:00:18.711Z,99539.09
2023-06-04T13:02:47.203Z,99538.65
2023-06-04T13:05:15.589Z,99541.13
2023-06-04T13:07:43.671Z,99545.29
2023-06-04T13:10:11.805Z,99545.52
2023-06-04T13:12:41.068Z,99545.52
2023-06-04T13:15:09.437Z,99544.34
2023-06-04T13:17:37.389Z,99539.58
2023-06-04T13:20:06.700Z,99543.45
2023-06-04T13:22:35.634Z,99541.31
2023-06-04T13:25:03.796Z,99539.27
2023-06-04T13:27:31.738Z,99529.54
2023-06-04T13:29:59.675Z,99528.77
2023-06-04T13:32:27.812Z,99532.73
2023-06-04T13:34:55.796Z,99529.02
2023-06-04T13:37:24.075Z,99528.75
2023-06-04T13:39:52.032Z,99526.88
2023-06-04T13:42:19.932Z,99524.69
2023-06-04T13:44:47.882Z,99521.45
2023-06-04T13:47:16.366Z,99518.95
2023-06-04T13:49:44.299Z,99516.23
2023-06-04T13:52:12.239Z,99518.41
2023-06-04T13:54:40.305Z,99518.27
2023-06-04T13:57:12.418Z,99510.63
2023-06-04T13:59:40.715Z,99514.02
2023-06-04T14:02:08.875Z,99512.23
2023-06-04T14:04:37.434Z,99514.63
2023-06-04T14:07:07.298Z,99518.42
2023-06-04T14:09:35.467Z,99513.86
2023-06-04T14:12:04.129Z,99514.30
2023-06-04T14:14:37.238Z,99514.88
2023-06-04T14:17:06.604Z,99515.59
2023-06-04T14:19:34.838Z,99510.70
2023-06-04T14:22:03.708Z,99506.56
2023-06-04T14:24:31.824Z,99505.36
2023-06-04T14:26:59.786Z,99504.44
2023-06-04T14:29:27.723Z,99503.59
2023-06-04T14:31:55.698Z,99500.30
2023-06-04T14:34:23.648Z,99494.58
2023-06-04T14:36:51.842Z,99492.39
2023-06-04T14:39:22.515Z,99497.23
2023-06-04T14:41:51.850Z,99498.05
2023-06-04T14:44:20.463Z,99500.57
2023-06-04T14:46:51.081Z,99495.90
2023-06-04T14:49:20.574Z,99494.59
2023-06-04T14:51:48.930Z,99491.02
2023-06-04T14:54:17.175Z,99489.86
2023-06-04T14:56:45.378Z,99492.29
2023-06-04T14:59:13.603Z,99492.05
2023-06-04T15:01:42.752Z,99488.51
2023-06-04T15:04:10.834Z,99485.34
2023-06-04T15:06:38.955Z,99485.17
2023-06-04T15:09:07.534Z,99484.59
2023-06-04T15:11:35.719Z,99481.59
2023-06-04T15:14:03.910Z,99480.96
2023-06-04T15:16:32.022Z,99481.72
2023-06-04T15:19:00.282Z,99485.41
2023-06-04T15:21:28.389Z,99485.08
2023-06-04T15:23:56.785Z,99482.23
2023-06-04T15:26:25.929Z,99479.70
2023-06-04T15:28:55.217Z,99476.67
2023-06-04T15:31:23.242Z,99474.42
2023-06-04T15:33:51.538Z,99474.15
2023-06-04T15:36:19.605Z,99475.88
2023-06-04T15:38:49.615Z,99478.02
2023-06-04T15:41:19.869Z,99468.89
2023-06-04T15:43:47.849Z,99464.90
2023-06-04T15:46:16.041Z,99467.10
2023-06-04T15:48:44.153Z,99462.61
2023-06-04T15:51:12.136Z,99456.25
2023-06-04T15:53:40.249Z,99451.22
2023-06-04T15:56:08.297Z,99449.64
2023-06-04T15:58:36.316Z,99452.43
2023-06-04T16:01:04.400Z,99452.33
2023-06-04T16:03:32.488Z,99459.02
2023-06-04T16:06:00.495Z,99462.96
2023-06-04T16:08:28.566Z,99461.86
2023-06-04T16:10:56.501Z,99462.20
2023-06-04T16:13:24.420Z,99463.36
2023-06-04T16:15:52.739Z,99462.63
2023-06-04T16:18:20.818Z,99461.10
2023-06-04T16:20:48.857Z,99463.59
2023-06-04T16:23:17.048Z,99462.34
2023-06-04T16:25:45.870Z,99456.95
2023-06-04T16:28:14.296Z,99456.11
2023-06-04T16:30:42.682Z,99458.63
2023-06-04T16:33:11.092Z,99458.22
2023-06-04T16:35:39.177Z,99460.67
2023-06-04T16:38:07.607Z,99461.53
2023-06-04T16:40:35.796Z,99458.91
2023-06-04T16:43:04.036Z,99458.80
2023-06-04T16:45:32.028Z,99459.83
2023-06-04T16:48:00.287Z,99458.09
2023-06-04T16:50:28.469Z,99454.30
2023-06-04T16:52:56.524Z,99453.69
2023-06-04T16:55:32.501Z,99452.09
2023-06-04T16:58:13.257Z,99449.74
2023-06-04T17:00:41.872Z,99448.58
2023-06-04T17:03:10.330Z,99452.05
2023-06-04T17:05:39.076Z,99454.77
2023-06-04T17:08:08.229Z,99454.11
2023-06-04T17:10:36.226Z,99461.86
2023-06-04T17:13:07.214Z,99461.70
2023-06-04T17:15:35.437Z,99461.74
2023-06-04T17:18:07.474Z,99459.38
2023-06-04T17:20:36.404Z,99460.64
2023-06-04T17:23:19.895Z,99456.01
2023-06-04T17:25:48.369Z,99453.64
2023-06-04T17:28:16.711Z,99451.83
2023-06-04T17:30:45.739Z,99453.27
2023-06-04T17:33:14.267Z,99455.42
2023-06-04T17:35:42.353Z,99457.41
2023-06-04T17:38:10.662Z,99459.47
2023-06-04T17:40:38.690Z,99461.59
2023-06-04T17:43:06.911Z,99461.61
2023-06-04T17:45:34.915Z,99460.33
2023-06-04T17:48:03.166Z,99460.67
2023-06-04T17:50:32.242Z,99460.77
2023-06-04T17:53:01.014Z,99460.12
2023-06-04T17:55:28.959Z,99456.23
2023-06-04T17:57:57.477Z,99459.01
2023-06-04T18:00:25.778Z,99459.45
2023-06-04T18:02:53.730Z,99459.70
2023-06-04T18:05:22.255Z,99460.95
2023-06-04T18:07:53.573Z,99462.06
2023-06-04T18:10:22.000Z,99464.50
2023-06-04T18:12:50.361Z,99464.98
2023-06-04T18:15:19.412Z,99461.58
2023-06-04T18:17:48.770Z,99465.40
2023-06-04T18:20:17.087Z,99465.98
2023-06-04T18:22:45.529Z,99467.78
2023-06-04T18:25:14.872Z,99468.95
2023-06-04T18:27:42.846Z,99470.53
2023-06-04T18:30:11.353Z,99471.65
2023-06-04T18:32:40.208Z,99476.02
2023-06-04T18:35:08.599Z,99482.60
2023-06-04T18:37:37.010Z,99485.74
2023-06-04T18:40:06.179Z,99486.08
2023-06-04T18:42:34.186Z,99483.95
2023-06-04T18:45:05.130Z,99485.61
2023-06-04T18:47:33.189Z,99485.04
2023-06-04T18:50:01.552Z,99488.21
2023-06-04T18:52:30.062Z,99489.98
2023-06-04T18:54:59.326Z,99491.77
2023-06-04T18:57:27.794Z,99495.07
2023-06-04T18:59:56.216Z,99497.77
2023-06-04T19:02:24.499Z,99499.40
2023-06-04T19:04:52.614Z,99503.98
2023-06-04T19:07:22.371Z,99513.49
2023-06-04T19:09:51.032Z,99514.48
2023-06-04T19:12:20.111Z,99512.96
2023-06-04T19:14:49.044Z,99515.69
2023-06-04T19:17:19.668Z,99519.44
2023-06-04T19:19:48.865Z,99521.39
2023-06-04T19:22:20.601Z,99525.31
2023-06-04T19:24:50.764Z,99521.30
2023-06-04T19:27:20.040Z,99524.91
2023-06-04T19:29:48.261Z,99526.81
2023-06-04T19:32:16.896Z,99530.20
2023-06-04T19:34:49.574Z,99531.77
2023-06-04T19:37:21.647Z,99532.64
2023-06-04T19:39:50.927Z,99531.17
2023-06-04T19:42:21.661Z,99534.20
2023-06-04T19:44:49.686Z,99539.08
2023-06-04T19:47:19.070Z,99539.39
2023-06-04T19:49:48.190Z,99542.83
2023-06-04T19:52:16.255Z,99544.92
2023-06-04T19:54:45.647Z,99551.04
2023-06-04T19:57:15.497Z,99554.02
2023-06-04T19:59:43.834Z,99557.15
2023-06-04T20:02:12.240Z,99566.21
2023-06-04T20:04:42.190Z,99564.66
2023-06-04T20:07:10.667Z,99564.58
2023-06-04T20:09:39.022Z,99564.95
2023-06-04T20:12:08.065Z,99562.66
2023-06-04T20:14:36.463Z,99558.99
2023-06-04T20:17:05.669Z,99559.39
2023-06-04T20:19:34.919Z,99558.48
2023-06-04T20:22:03.304Z,99556.79
2023-06-04T20:24:31.747Z,99556.17
2023-06-04T20:26:59.904Z,99560.83
2023-06-04T20:29:28.554Z,99560.26
2023-06-04T20:32:01.512Z,99559.20
2023-06-04T20:34:29.604Z,99564.44
2023-06-04T20:36:58.142Z,99567.23
2023-06-04T20:39:31.753Z,99571.36
2023-06-04T20:41:59.910Z,99573.63
2023-06-04T20:44:29.697Z,99570.66
2023-06-04T20:46:58.061Z,99567.62
2023-06-04T20:49:26.209Z,99568.09
2023-06-04T20:51:54.218Z,99568.48
2023-06-04T20:54:22.469Z,99566.58
2023-06-04T20:56:50.448Z,99566.52
2023-06-04T20:59:18.494Z,99565.73
2023-06-04T21:01:46.704Z,99563.34
2023-06-04T21:04:15.290Z,99565.96
2023-06-04T21:06:43.342Z,99564.98
2023-06-04T21:09:11.495Z,99562.86
2023-06-04T21:11:39.495Z,99563.45
2023-06-04T21:14:07.497Z,99562.42
2023-06-04T21:16:41.848Z,99561.06
2023-06-04T21:19:09.889Z,99564.10
2023-06-04T21:21:38.152Z,99566.16
2023-06-04T21:24:06.154Z,99570.14
2023-06-04T21:26:34.301Z,99570.55
2023-06-04T21:29:02.295Z,99574.64
2023-06-04T21:31:30.403Z,99572.41
2023-06-04T21:33:58.367Z,99577.45
2023-06-04T21:36:29.294Z,99577.36
2023-06-04T21:38:57.300Z,99578.80
2023-06-04T21:41:26.819Z,99580.82
2023-06-04T21:43:54.786Z,99584.52
2023-06-04T21:46:23.123Z,99591.86
2023-06-04T21:48:51.094Z,99596.92
2023-06-04T21:51:19.026Z,99594.23
2023-06-04T21:53:47.084Z,99591.31
2023-06-04T21:56:15.229Z,99594.27
2023-06-04T21:58:44.122Z,99595.23
2023-06-04T22:01:12.431Z,99595.32
2023-06-04T22:03:41.993Z,99596.27
2023-06-04T22:06:10.299Z,99596.75
2023-06-04T22:08:38.205Z,99598.13
2023-06-04T22:11:06.611Z,99604.14
2023-06-04T22:13:34.978Z,99605.48
2023-06-04T22:16:03.205Z,99601.77
2023-06-04T22:18:48.184Z,99602.59
2023-06-04T22:21:20.542Z,99604.38
2023-06-04T22:23:48.694Z,99604.34
2023-06-04T22:28:47.664Z,99599.05
2023-06-04T22:31:15.920Z,99598.72
2023-06-04T22:33:43.882Z,99601.88
2023-06-04T22:36:11.844Z,99605.77
2023-06-04T22:38:39.800Z,99606.40
2023-06-04T22:41:08.042Z,99604.45
2023-06-04T22:43:36.434Z,99605.63
2023-06-04T22:46:04.418Z,99602.70
2023-06-04T22:48:32.332Z,99600.21
2023-06-04T22:51:00.499Z,99598.83
2023-06-04T22:53:29.059Z,99600.59
2023-06-04T22:56:00.246Z,99600.63
2023-06-04T22:58:28.386Z,99598.77
2023-06-04T23:00:56.406Z,99598.56
2023-06-04T23:03:26.449Z,99603.80
2023-06-04T23:05:55.187Z,99603.91
2023-06-04T23:08:23.705Z,99603.80
2023-06-04T23:10:51.868Z,99603.70
2023-06-04T23:13:20.062Z,99601.36
2023-06-04T23:15:48.068Z,99604.08
2023-06-04T23:18:16.136Z,99607.45
2023-06-04T23:20:44.090Z,99608.05
2023-06-04T23:23:12.000Z,99609.36
2023-06-04T23:25:39.944Z,99606.66
2023-06-04T23:28:07.911Z,99609.76
2023-06-04T23:30:36.025Z,99606.64
2023-06-04T23:33:04.120Z,99604.56
2023-06-04T23:35:32.234Z,99603.55
2023-06-04T23:38:00.160Z,99602.33
2023-06-04T23:40:28.198Z,99607.66
2023-06-04T23:42:56.147Z,99604.66
2023-06-04T23:45:24.072Z,99603.80
2023-06-04T23:47:52.040Z,99602.73
2023-06-04T23:50:20.058Z,99601.19
2023-06-04T23:52:47.951Z,99598.97
2023-06-04T23:55:16.178Z,99595.85
2023-06-04T23:57:44.118Z,99597.46
